Time;durP1;ratioP1;P1;durP2;ratioP2;P2;SDS_P1;SDS_P2;PMS_P1;PMS_P2;Temp;Humidity;BMP_temperature;BMP_pressure;BME280_temperature;BME280_humidity;BME280_pressure;Samples;Min_cycle;Max_cycle;Signal;HPM_P1;HPM_P2
2022/05/28 00:00:59;;;;;;;7.50;4.40;;;;;;;24.41;40.80;100458.02;106880;1283;61247;-82
2022/05/28 00:03:26;;;;;;;7.20;4.30;;;;;;;24.41;40.66;100456.03;106858;1283;61503;-83
2022/05/28 00:05:52;;;;;;;6.20;4.00;;;;;;;24.41;40.73;100452.24;106645;1284;61368;-84
2022/05/28 00:08:18;;;;;;;7.40;4.10;;;;;;;24.40;40.59;100453.21;106906;1283;61246;-82
2022/05/28 00:10:44;;;;;;;8.20;4.10;;;;;;;24.40;40.70;100449.98;106869;1283;61393;-82
2022/05/28 00:13:10;;;;;;;6.90;4.10;;;;;;;24.40;40.67;100442.96;106658;1283;61319;-83
2022/05/28 00:15:35;;;;;;;6.20;4.10;;;;;;;24.41;40.83;100436.84;106834;1284;61303;-83
2022/05/28 00:18:01;;;;;;;7.10;4.10;;;;;;;24.40;40.77;100433.81;106932;1283;61369;-79
2022/05/28 00:20:27;;;;;;;5.80;4.00;;;;;;;24.40;40.73;100431.66;106878;1283;61408;-82
2022/05/28 00:22:52;;;;;;;7.30;3.90;;;;;;;24.40;40.76;100430.95;106899;1283;61346;-80
2022/05/28 00:25:18;;;;;;;6.50;4.20;;;;;;;24.40;40.79;100428.81;106892;1283;62439;-82
2022/05/28 00:27:44;;;;;;;7.30;4.20;;;;;;;24.40;40.80;100427.38;106883;1283;61294;-83
2022/05/28 00:30:12;;;;;;;8.60;4.20;;;;;;;24.40;40.69;100428.27;106879;1283;61413;-82
2022/05/28 00:32:38;;;;;;;5.60;3.80;;;;;;;24.39;40.77;100427.23;106901;1283;61153;-84
2022/05/28 00:35:04;;;;;;;6.30;4.30;;;;;;;24.39;40.84;100424.91;106819;1284;61786;-83
2022/05/28 00:37:30;;;;;;;10.30;3.90;;;;;;;24.39;40.85;100425.98;106811;1286;62315;-84
2022/05/28 00:39:56;;;;;;;6.10;3.80;;;;;;;24.39;40.81;100421.67;106885;1283;61247;-82
2022/05/28 00:42:22;;;;;;;8.40;4.30;;;;;;;24.39;40.83;100418.11;106650;1286;61144;-85
2022/05/28 00:44:47;;;;;;;6.10;4.00;;;;;;;24.39;40.76;100417.38;106908;1283;61295;-82
2022/05/28 00:47:13;;;;;;;6.90;4.20;;;;;;;24.39;40.82;100416.29;106891;1283;72509;-82
2022/05/28 00:49:39;;;;;;;6.30;3.90;;;;;;;24.39;40.81;100413.79;106618;1283;60104;-82
2022/05/28 00:52:07;;;;;;;6.30;3.60;;;;;;;24.38;40.77;100411.13;106874;1283;61429;-80
2022/05/28 00:54:44;;;;;;;5.40;3.90;;;;;;;24.38;40.81;100416.02;106856;1283;61357;-82
2022/05/28 00:57:10;;;;;;;5.30;3.70;;;;;;;24.38;40.83;100419.08;106552;1284;72363;-81
2022/05/28 00:59:36;;;;;;;6.80;4.00;;;;;;;24.38;40.80;100418.20;106906;1283;61416;-86
2022/05/28 01:02:19;;;;;;;5.80;4.00;;;;;;;24.38;40.98;100418.16;106578;1286;61289;-82
2022/05/28 01:04:48;;;;;;;6.80;3.60;;;;;;;24.38;40.86;100420.87;106886;1284;61505;-84
2022/05/28 01:07:19;;;;;;;5.20;3.80;;;;;;;24.38;40.80;100413.90;107072;1282;72671;-82
2022/05/28 01:09:56;;;;;;;6.80;4.30;;;;;;;24.38;40.89;100409.58;107114;1283;74760;-89
2022/05/28 01:12:41;;;;;;;5.50;3.90;;;;;;;24.38;40.95;100413.17;106867;1283;61206;-84
2022/05/28 01:15:19;;;;;;;6.50;3.90;;;;;;;24.38;40.95;100413.36;106973;1284;61287;-81
2022/05/28 01:18:08;;;;;;;5.50;3.70;;;;;;;24.37;40.91;100413.40;106925;1283;72711;-82
2022/05/28 01:20:40;;;;;;;5.70;3.60;;;;;;;24.36;40.91;100415.83;106873;1283;74649;-81
2022/05/28 01:23:11;;;;;;;8.30;4.10;;;;;;;24.37;40.98;100417.06;106935;1283;61324;-82
2022/05/28 01:26:34;;;;;;;6.10;3.90;;;;;;;24.37;40.90;100416.15;107011;1283;61395;-82
2022/05/28 01:29:04;;;;;;;7.10;4.10;;;;;;;24.36;41.03;100415.13;106196;1289;73794;-80
2022/05/28 01:31:30;;;;;;;6.00;3.80;;;;;;;24.37;40.98;100413.26;105970;1289;75618;-85
2022/05/28 01:33:56;;;;;;;5.60;3.70;;;;;;;24.36;41.04;100417.05;106114;1289;61232;-82
2022/05/28 01:36:21;;;;;;;6.60;3.60;;;;;;;24.37;40.95;100419.16;105972;1289;61324;-82
2022/05/28 01:38:47;;;;;;;7.20;4.00;;;;;;;24.36;41.00;100419.59;105946;1289;61241;-81
2022/05/28 01:41:13;;;;;;;7.30;4.10;;;;;;;24.36;41.06;100421.38;105956;1287;61421;-83
2022/05/28 01:43:40;;;;;;;5.80;4.10;;;;;;;24.37;41.05;100426.40;106220;1289;61363;-83
2022/05/28 01:46:06;;;;;;;5.70;3.70;;;;;;;24.36;41.07;100428.41;105960;1289;60413;-83
2022/05/28 01:48:32;;;;;;;6.60;4.10;;;;;;;24.36;40.92;100426.27;105974;1289;62504;-82
2022/05/28 01:50:58;;;;;;;6.80;3.90;;;;;;;24.36;41.15;100423.77;106166;1289;61398;-82
2022/05/28 01:56:09;;;;;;;6.30;3.90;;;;;;;24.36;41.08;100421.09;106030;1289;61244;-81
2022/05/28 01:58:35;;;;;;;6.10;4.40;;;;;;;24.36;41.13;100425.76;106172;1289;62314;-83
2022/05/28 02:01:01;;;;;;;5.40;3.70;;;;;;;24.36;41.11;100428.81;106826;1283;61294;-83
2022/05/28 02:03:28;;;;;;;7.00;4.00;;;;;;;24.36;41.14;100427.73;106838;1284;61311;-82
2022/05/28 02:05:54;;;;;;;5.60;4.00;;;;;;;24.35;41.14;100427.96;106716;1284;61378;-82
2022/05/28 02:08:20;;;;;;;5.10;4.10;;;;;;;24.35;41.12;100428.20;106928;1284;61307;-83
2022/05/28 02:10:47;;;;;;;6.50;4.10;;;;;;;24.35;41.04;100428.02;106847;1283;61244;-84
2022/05/28 02:13:23;;;;;;;6.20;3.90;;;;;;;24.35;41.16;100430.66;106928;1283;61358;-82
2022/05/28 02:15:51;;;;;;;6.00;4.10;;;;;;;24.35;41.27;100430.89;106519;1284;61157;-83
2022/05/28 02:18:27;;;;;;;6.80;3.90;;;;;;;24.35;41.28;100432.51;106849;1284;62296;-84
2022/05/28 02:20:52;;;;;;;6.40;3.80;;;;;;;24.35;41.28;100430.35;106924;1283;72992;-82
2022/05/28 02:23:23;;;;;;;7.20;4.30;;;;;;;24.35;41.24;100428.02;107123;1282;61244;-83
2022/05/28 02:26:12;;;;;;;6.00;4.00;;;;;;;24.35;41.22;100426.23;106892;1284;61234;-84
2022/05/28 02:28:37;;;;;;;5.50;3.90;;;;;;;24.35;41.29;100426.06;106880;1284;61292;-81
2022/05/28 02:31:13;;;;;;;6.30;3.90;;;;;;;24.34;41.32;100422.29;106894;1283;61257;-81
2022/05/28 02:33:39;;;;;;;5.70;4.10;;;;;;;24.34;41.34;100421.77;106897;1283;74708;-83
2022/05/28 02:36:05;;;;;;;8.00;4.50;;;;;;;24.34;41.26;100420.73;106661;1283;61284;-84
2022/05/28 02:38:31;;;;;;;6.20;4.10;;;;;;;24.34;41.30;100422.67;106887;1284;61348;-82
2022/05/28 02:40:56;;;;;;;6.10;4.20;;;;;;;24.34;41.29;100423.54;106897;1284;61284;-84
2022/05/28 02:43:23;;;;;;;6.60;4.00;;;;;;;24.34;41.37;100420.02;106887;1283;61300;-82
2022/05/28 02:45:48;;;;;;;5.50;4.20;;;;;;;24.34;41.37;100421.60;106914;1283;61258;-82
2022/05/28 02:48:14;;;;;;;6.60;3.90;;;;;;;24.34;41.33;100419.09;106948;1283;61352;-83
2022/05/28 02:50:40;;;;;;;6.70;4.40;;;;;;;24.34;41.31;100418.94;106881;1283;61151;-84
2022/05/28 02:53:05;;;;;;;6.10;4.10;;;;;;;24.33;41.29;100419.66;106912;1283;61333;-84
2022/05/28 02:55:32;;;;;;;6.20;4.00;;;;;;;24.33;41.29;100422.20;107115;1283;61218;-83
2022/05/28 02:57:58;;;;;;;6.80;4.50;;;;;;;24.33;41.41;100422.73;106965;1283;61255;-85
2022/05/28 03:00:24;;;;;;;7.30;4.30;;;;;;;24.34;41.31;100421.09;106490;1284;61292;-83
2022/05/28 03:02:50;;;;;;;6.90;4.70;;;;;;;24.34;41.35;100421.09;106871;1283;61132;-82
2022/05/28 03:05:17;;;;;;;7.50;4.40;;;;;;;24.34;41.32;100421.29;106869;1284;61247;-84
2022/05/28 03:07:42;;;;;;;7.50;4.40;;;;;;;24.34;41.40;100420.01;106899;1283;61321;-83
2022/05/28 03:10:08;;;;;;;6.60;4.20;;;;;;;24.33;41.36;100415.73;107185;1283;61189;-83
2022/05/28 03:12:34;;;;;;;7.10;4.20;;;;;;;24.33;41.41;100416.80;106863;1284;60590;-84
2022/05/28 03:15:00;;;;;;;11.50;4.40;;;;;;;24.34;41.46;100416.95;106882;1283;61252;-82
2022/05/28 03:17:25;;;;;;;7.40;4.40;;;;;;;24.34;41.30;100421.64;106913;1283;61324;-82
2022/05/28 03:19:52;;;;;;;6.30;4.50;;;;;;;24.34;41.39;100421.06;106876;1283;61567;-82
2022/05/28 03:22:17;;;;;;;6.50;4.00;;;;;;;24.35;41.42;100423.90;106931;1283;61551;-82
2022/05/28 03:24:43;;;;;;;7.00;4.40;;;;;;;24.34;41.41;100423.56;106891;1283;61321;-82
2022/05/28 03:27:09;;;;;;;5.70;4.10;;;;;;;24.34;41.38;100428.96;107149;1283;61292;-84
2022/05/28 03:29:35;;;;;;;7.00;4.50;;;;;;;24.34;41.37;100429.13;107109;1283;74921;-83
2022/05/28 03:32:00;;;;;;;6.90;4.20;;;;;;;24.34;41.47;100436.16;107150;1283;61298;-84
2022/05/28 03:34:26;;;;;;;8.10;4.30;;;;;;;24.35;41.43;100439.02;106749;1283;61318;-84
2022/05/28 03:36:52;;;;;;;7.40;4.10;;;;;;;24.34;41.47;100445.48;106725;1283;61347;-84
2022/05/28 03:39:18;;;;;;;6.70;4.30;;;;;;;24.34;41.43;100448.01;106903;1283;62106;-82
2022/05/28 03:41:44;;;;;;;7.60;4.40;;;;;;;24.34;41.45;100450.69;106637;1283;62974;-83
2022/05/28 03:44:11;;;;;;;8.20;4.50;;;;;;;24.35;41.46;100452.49;106948;1283;61320;-83
2022/05/28 03:46:37;;;;;;;8.20;4.50;;;;;;;24.34;41.45;100450.34;106924;1283;61412;-84
2022/05/28 03:49:12;;;;;;;6.80;4.60;;;;;;;24.34;41.53;100449.12;106899;1283;61278;-80
2022/05/28 03:51:37;;;;;;;9.20;4.60;;;;;;;24.34;41.59;100450.37;106532;1286;75752;-83
2022/05/28 03:54:03;;;;;;;8.50;4.50;;;;;;;24.34;41.51;100448.38;106888;1283;61363;-82
2022/05/28 03:56:34;;;;;;;7.20;4.40;;;;;;;24.34;41.57;100456.64;106925;1283;61269;-82
2022/05/28 03:58:59;;;;;;;7.40;4.50;;;;;;;24.34;41.52;100457.92;106943;1283;73607;-82
2022/05/28 04:01:25;;;;;;;6.90;4.30;;;;;;;24.34;41.60;100461.16;106880;1283;61388;-83
2022/05/28 04:03:51;;;;;;;6.30;4.00;;;;;;;24.35;41.66;100456.79;106886;1283;61323;-83
2022/05/28 04:06:19;;;;;;;9.80;4.40;;;;;;;24.35;41.62;100456.41;106886;1284;61293;-83
2022/05/28 04:08:45;;;;;;;7.10;4.50;;;;;;;24.35;41.61;100460.56;106904;1283;61109;-83
2022/05/28 04:11:11;;;;;;;6.00;4.50;;;;;;;24.34;41.63;100460.05;106922;1283;61443;-84
2022/05/28 04:13:36;;;;;;;7.20;4.40;;;;;;;24.35;41.57;100453.17;106853;1285;61264;-84
2022/05/28 04:16:03;;;;;;;8.70;4.80;;;;;;;24.35;41.59;100450.48;106902;1283;61248;-82
2022/05/28 04:18:31;;;;;;;8.90;4.80;;;;;;;24.35;41.67;100455.85;106858;1285;61258;-84
2022/05/28 04:20:56;;;;;;;7.90;5.00;;;;;;;24.35;41.71;100455.13;106881;1283;61241;-82
2022/05/28 04:23:22;;;;;;;8.80;5.00;;;;;;;24.35;41.68;100461.41;106934;1283;61344;-82
2022/05/28 04:25:48;;;;;;;6.30;5.20;;;;;;;24.36;41.62;100461.52;106907;1283;61275;-82
2022/05/28 04:28:13;;;;;;;9.00;5.60;;;;;;;24.35;41.72;100461.24;106933;1283;61349;-83
2022/05/28 04:30:39;;;;;;;8.70;4.90;;;;;;;24.36;41.71;100461.52;106912;1283;73564;-79
2022/05/28 04:33:05;;;;;;;6.80;5.00;;;;;;;24.36;41.70;100459.58;106607;1284;61262;-85
2022/05/28 04:35:30;;;;;;;8.50;5.20;;;;;;;24.36;41.65;100457.75;106926;1283;61320;-82
2022/05/28 04:37:56;;;;;;;8.10;5.50;;;;;;;24.37;41.80;100461.62;106919;1283;61297;-84
2022/05/28 04:40:22;;;;;;;7.10;5.50;;;;;;;24.37;41.72;100459.10;106715;1284;61287;-82
2022/05/28 04:42:48;;;;;;;7.80;5.10;;;;;;;24.37;41.67;100457.86;106970;1283;59974;-82
2022/05/28 04:45:14;;;;;;;7.10;5.30;;;;;;;24.37;41.78;100457.81;106915;1283;74883;-82
2022/05/28 04:47:40;;;;;;;8.80;5.30;;;;;;;24.37;41.70;100466.28;106637;1283;61269;-83
2022/05/28 04:50:06;;;;;;;7.70;5.30;;;;;;;24.37;41.76;100466.64;107131;1283;61246;-85
2022/05/28 04:52:32;;;;;;;8.20;5.40;;;;;;;24.38;41.70;100466.42;106911;1283;61135;-83
2022/05/28 04:54:58;;;;;;;9.10;5.10;;;;;;;24.39;41.68;100471.01;106884;1283;61267;-82
2022/05/28 04:57:23;;;;;;;8.40;5.30;;;;;;;24.39;41.76;100468.11;106664;1283;61393;-82
2022/05/28 04:59:50;;;;;;;7.60;5.30;;;;;;;24.39;41.67;100472.19;106891;1283;61242;-82
2022/05/28 05:02:15;;;;;;;8.60;5.20;;;;;;;24.39;41.74;100471.27;106929;1283;61256;-84
2022/05/28 05:04:42;;;;;;;8.30;5.10;;;;;;;24.40;41.72;100475.70;106895;1283;73607;-83
2022/05/28 05:07:08;;;;;;;7.60;5.20;;;;;;;24.40;41.79;100472.13;106554;1284;61239;-82
2022/05/28 05:09:33;;;;;;;8.80;5.50;;;;;;;24.41;41.78;100469.72;107194;1283;61389;-85
2022/05/28 05:11:59;;;;;;;8.70;5.50;;;;;;;24.41;41.78;100470.43;106939;1283;61385;-84
2022/05/28 05:14:25;;;;;;;7.20;5.10;;;;;;;24.42;41.77;100468.39;106899;1283;62425;-83
2022/05/28 05:16:50;;;;;;;10.40;5.20;;;;;;;24.41;41.77;100464.46;106875;1283;61282;-82
2022/05/28 05:19:16;;;;;;;10.20;5.70;;;;;;;24.42;41.75;100463.51;106948;1283;61255;-85
2022/05/28 05:21:42;;;;;;;10.10;5.30;;;;;;;24.43;41.74;100466.48;106878;1283;61226;-82
2022/05/28 05:24:08;;;;;;;7.90;5.30;;;;;;;24.43;41.75;100470.36;106919;1283;61258;-84
2022/05/28 05:26:33;;;;;;;8.00;5.60;;;;;;;24.44;41.72;100471.77;106635;1283;61259;-81
2022/05/28 05:28:59;;;;;;;9.90;5.10;;;;;;;24.45;41.81;100474.20;106904;1283;61274;-80
2022/05/28 05:31:25;;;;;;;8.80;5.20;;;;;;;24.46;41.75;100477.71;106944;1283;61297;-84
2022/05/28 05:33:51;;;;;;;7.40;5.30;;;;;;;24.47;41.77;100476.20;106952;1283;61343;-84
2022/05/28 05:36:17;;;;;;;8.40;4.90;;;;;;;24.48;41.72;100475.94;106909;1283;61272;-82
2022/05/28 05:38:42;;;;;;;6.70;5.00;;;;;;;24.48;41.82;100470.13;106900;1283;61311;-84
2022/05/28 05:41:08;;;;;;;9.80;5.10;;;;;;;24.49;41.69;100470.41;106913;1283;62146;-82
2022/05/28 05:43:35;;;;;;;10.40;5.30;;;;;;;24.49;41.76;100469.52;106879;1283;61435;-84
2022/05/28 05:46:01;;;;;;;8.70;5.20;;;;;;;24.50;41.73;100470.12;106926;1283;61275;-84
2022/05/28 05:48:28;;;;;;;9.50;4.80;;;;;;;24.52;41.73;100466.00;106477;1284;61270;-82
2022/05/28 05:50:53;;;;;;;8.40;5.00;;;;;;;24.53;41.76;100461.98;106516;1284;61273;-82
2022/05/28 05:53:19;;;;;;;8.70;5.10;;;;;;;24.53;41.75;100454.91;106896;1285;61255;-83
2022/05/28 05:55:46;;;;;;;7.50;5.10;;;;;;;24.54;41.78;100455.34;107201;1283;61349;-82
2022/05/28 05:58:12;;;;;;;9.10;4.80;;;;;;;24.55;41.77;100453.85;106928;1283;61244;-82
2022/05/28 06:00:37;;;;;;;7.90;4.90;;;;;;;24.56;41.86;100451.45;106902;1283;72791;-82
2022/05/28 06:03:03;;;;;;;7.40;4.80;;;;;;;24.56;41.69;100451.23;106908;1283;61377;-82
2022/05/28 06:05:29;;;;;;;10.30;5.20;;;;;;;24.57;41.89;100458.85;106886;1285;63214;-80
2022/05/28 06:07:55;;;;;;;8.70;4.80;;;;;;;24.58;41.85;100461.45;106868;1285;61273;-82
2022/05/28 06:10:20;;;;;;;8.10;4.90;;;;;;;24.59;41.84;100462.50;106609;1283;61222;-82
2022/05/28 06:12:46;;;;;;;8.00;4.70;;;;;;;24.59;41.91;100459.02;106827;1283;61270;-82
2022/05/28 06:15:12;;;;;;;7.10;5.00;;;;;;;24.60;41.81;100462.04;106048;1286;1113972;-85
2022/05/28 06:17:38;;;;;;;9.70;5.20;;;;;;;24.61;41.78;100464.10;106919;1283;61297;-83
2022/05/28 06:20:06;;;;;;;8.10;4.40;;;;;;;24.62;41.81;100464.80;106790;1283;61330;-82
2022/05/28 06:22:31;;;;;;;8.00;4.90;;;;;;;24.63;41.82;100458.75;106931;1283;74282;-83
2022/05/28 06:24:57;;;;;;;8.20;4.50;;;;;;;24.63;41.77;100455.48;106857;1284;61308;-79
2022/05/28 06:27:23;;;;;;;6.00;4.50;;;;;;;24.64;41.78;100451.47;106932;1283;61351;-81
2022/05/28 06:29:49;;;;;;;7.50;4.20;;;;;;;24.64;41.86;100448.44;106918;1283;61290;-84
2022/05/28 06:32:15;;;;;;;7.70;4.60;;;;;;;24.64;41.70;100449.31;107199;1283;61329;-84
2022/05/28 06:34:40;;;;;;;8.60;5.40;;;;;;;24.64;41.92;100444.44;106910;1286;61234;-85
2022/05/28 06:37:07;;;;;;;7.20;4.80;;;;;;;24.65;41.81;100438.47;106958;1283;61203;-83
2022/05/28 06:39:34;;;;;;;10.00;5.00;;;;;;;24.64;41.74;100436.13;106745;1286;61353;-82
2022/05/28 06:41:59;;;;;;;7.80;4.90;;;;;;;24.65;41.88;100433.17;106905;1283;61456;-84
2022/05/28 06:44:26;;;;;;;7.50;4.70;;;;;;;24.65;41.81;100433.00;107189;1283;61284;-86
2022/05/28 06:46:51;;;;;;;7.10;4.30;;;;;;;24.65;41.81;100433.70;106349;1284;61347;-84
2022/05/28 06:49:17;;;;;;;9.60;4.80;;;;;;;24.66;41.81;100428.96;106912;1283;61235;-82
2022/05/28 06:51:43;;;;;;;6.40;4.80;;;;;;;24.66;41.75;100421.63;106766;1286;61251;-84
2022/05/28 06:54:09;;;;;;;7.10;4.70;;;;;;;24.66;41.84;100423.04;106900;1283;61247;-83
2022/05/28 06:56:34;;;;;;;7.80;4.40;;;;;;;24.66;41.90;100419.66;106951;1283;61279;-84
2022/05/28 06:59:00;;;;;;;7.30;4.90;;;;;;;24.65;41.80;100414.09;106884;1283;75737;-83
2022/05/28 07:01:26;;;;;;;9.20;4.80;;;;;;;24.66;41.90;100414.77;106934;1283;61285;-84
2022/05/28 07:03:52;;;;;;;6.60;4.80;;;;;;;24.66;41.87;100405.77;106811;1283;61354;-81
2022/05/28 07:06:17;;;;;;;7.10;4.40;;;;;;;24.66;41.93;100401.77;106888;1283;61227;-82
2022/05/28 07:08:46;;;;;;;7.80;4.60;;;;;;;24.67;41.83;100404.23;107204;1283;61339;-82
2022/05/28 07:11:11;;;;;;;5.80;4.40;;;;;;;24.67;41.95;100402.41;106889;1283;61265;-85
2022/05/28 07:13:37;;;;;;;7.80;4.90;;;;;;;24.68;41.85;100400.94;106920;1283;61234;-82
2022/05/28 07:16:05;;;;;;;7.80;4.60;;;;;;;24.67;41.83;100397.35;106904;1283;61218;-82
2022/05/28 07:18:32;;;;;;;8.20;4.40;;;;;;;24.68;41.85;100400.55;106564;1284;61277;-82
2022/05/28 07:20:57;;;;;;;6.80;4.40;;;;;;;24.68;41.85;100395.68;106877;1283;61085;-82
2022/05/28 07:23:26;;;;;;;7.80;4.70;;;;;;;24.68;41.90;100403.09;106936;1283;61225;-84
2022/05/28 07:26:05;;;;;;;7.90;4.50;;;;;;;24.68;41.94;100400.77;106609;1283;73557;-84
2022/05/28 07:28:33;;;;;;;14.20;4.70;;;;;;;24.67;41.89;100397.79;106814;1283;75926;-82
2022/05/28 07:31:01;;;;;;;9.00;4.90;;;;;;;24.67;41.99;100398.10;106582;1284;61291;-82
2022/05/28 07:33:28;;;;;;;8.60;4.50;;;;;;;24.66;42.00;100396.76;106899;1283;61266;-82
2022/05/28 07:35:54;;;;;;;7.40;4.60;;;;;;;24.66;41.93;100393.52;106780;1284;73922;-82
2022/05/28 07:38:20;;;;;;;7.90;5.10;;;;;;;24.66;42.02;100396.21;106625;1283;61304;-81
2022/05/28 07:40:46;;;;;;;6.40;4.60;;;;;;;24.66;42.02;100393.88;106562;1283;62514;-82
2022/05/28 07:43:12;;;;;;;6.50;4.50;;;;;;;24.67;42.05;100396.88;106685;1283;61410;-80
2022/05/28 07:45:40;;;;;;;9.50;4.40;;;;;;;24.67;42.04;100400.30;106731;1284;61275;-82
2022/05/28 07:48:07;;;;;;;8.10;4.40;;;;;;;24.67;41.97;100398.11;106815;1283;61240;-83
2022/05/28 07:50:32;;;;;;;7.80;4.60;;;;;;;24.68;42.09;100402.19;106766;1283;61213;-82
2022/05/28 07:52:59;;;;;;;8.90;4.80;;;;;;;24.68;42.03;100404.42;106806;1283;61361;-83
2022/05/28 07:55:26;;;;;;;6.00;4.60;;;;;;;24.68;42.04;100409.32;106805;1283;61237;-82
2022/05/28 07:57:51;;;;;;;6.70;4.20;;;;;;;24.69;42.10;100406.02;106748;1282;61315;-81
2022/05/28 08:00:17;;;;;;;8.80;4.60;;;;;;;24.70;42.17;100399.83;106875;1283;61316;-84
2022/05/28 08:02:43;;;;;;;6.80;4.80;;;;;;;24.71;42.10;100395.40;106693;1284;61288;-83
2022/05/28 08:05:09;;;;;;;8.00;4.70;;;;;;;24.71;42.11;100394.11;106880;1283;61380;-82
2022/05/28 08:07:34;;;;;;;7.50;4.80;;;;;;;24.72;42.02;100392.09;106830;1283;61266;-82
2022/05/28 08:10:00;;;;;;;7.40;4.70;;;;;;;24.72;42.14;100391.14;106680;1283;61231;-80
2022/05/28 08:12:25;;;;;;;8.00;4.30;;;;;;;24.73;42.08;100392.48;106751;1283;61282;-83
2022/05/28 08:14:51;;;;;;;7.90;4.60;;;;;;;24.73;42.08;100389.11;106555;1285;61985;-81
2022/05/28 08:17:17;;;;;;;10.20;5.00;;;;;;;24.74;42.12;100389.20;106673;1283;61303;-82
2022/05/28 08:19:43;;;;;;;8.80;5.10;;;;;;;24.75;42.06;100387.47;106827;1283;61328;-82
2022/05/28 08:24:53;;;;;;;9.30;4.50;;;;;;;24.75;42.01;100387.27;106790;1285;61265;-82
2022/05/28 08:27:18;;;;;;;8.00;4.50;;;;;;;24.76;42.07;100383.27;106743;1283;61299;-81
2022/05/28 08:29:44;;;;;;;9.80;4.70;;;;;;;24.76;42.05;100385.56;107010;1284;61155;-81
2022/05/28 08:32:10;;;;;;;7.20;4.60;;;;;;;24.76;42.13;100387.55;106843;1283;61372;-82
2022/05/28 08:34:35;;;;;;;7.10;4.30;;;;;;;24.77;42.06;100388.03;106880;1282;61265;-82
2022/05/28 08:37:01;;;;;;;8.30;4.60;;;;;;;24.77;42.12;100391.23;106666;1283;61487;-83
2022/05/28 08:39:27;;;;;;;7.40;4.90;;;;;;;24.77;42.11;100392.83;106869;1283;73715;-86
2022/05/28 08:41:57;;;;;;;6.90;4.50;;;;;;;24.79;42.11;100399.77;106889;1283;61308;-82
2022/05/28 08:44:28;;;;;;;7.40;4.10;;;;;;;24.78;42.00;100393.34;107193;1283;61414;-82
2022/05/28 08:46:56;;;;;;;7.10;4.40;;;;;;;24.79;42.01;100390.05;106873;1283;61373;-82
2022/05/28 08:49:25;;;;;;;5.90;4.10;;;;;;;24.78;42.05;100386.46;106589;1284;74538;-82
2022/05/28 08:52:03;;;;;;;6.60;4.40;;;;;;;24.78;41.98;100382.48;106832;1286;76045;-79
2022/05/28 08:54:58;;;;;;;6.90;4.30;;;;;;;24.78;42.10;100381.23;106844;1284;61424;-86
2022/05/28 08:57:59;;;;;;;5.70;4.20;;;;;;;24.78;42.12;100382.14;106685;1285;61153;-80
2022/05/28 09:00:37;;;;;;;7.80;4.30;;;;;;;24.78;42.11;100377.14;107111;1283;73690;-82
2022/05/28 09:03:22;;;;;;;5.80;4.40;;;;;;;24.78;42.03;100382.34;107189;1283;74718;-83
2022/05/28 09:05:52;;;;;;;6.90;4.30;;;;;;;24.78;42.05;100384.67;106882;1283;61613;-82
2022/05/28 09:08:29;;;;;;;5.90;4.10;;;;;;;24.79;42.04;100380.64;107188;1283;61204;-85
2022/05/28 09:10:56;;;;;;;5.90;4.30;;;;;;;24.78;42.11;100378.19;106772;1283;72906;-82
2022/05/28 09:13:37;;;;;;;6.40;4.20;;;;;;;24.79;42.04;100376.31;106434;1283;73289;-83
2022/05/28 09:16:03;;;;;;;7.70;4.60;;;;;;;24.79;42.09;100375.09;106841;1284;61297;-86
2022/05/28 09:18:34;;;;;;;5.70;4.30;;;;;;;24.79;42.07;100371.45;106890;1283;61263;-82
2022/05/28 09:20:59;;;;;;;5.90;4.30;;;;;;;24.79;41.96;100368.41;106870;1283;73873;-82
2022/05/28 09:23:25;;;;;;;6.40;4.30;;;;;;;24.79;42.02;100364.04;106902;1283;61306;-80
2022/05/28 09:25:51;;;;;;;8.10;4.10;;;;;;;24.80;42.09;100363.81;106608;1286;61255;-83
2022/05/28 09:28:19;;;;;;;9.10;4.30;;;;;;;24.80;42.08;100361.48;106904;1283;61260;-84
2022/05/28 09:31:18;;;;;;;6.30;4.40;;;;;;;24.80;41.98;100363.61;106933;1283;61228;-82
2022/05/28 09:34:15;;;;;;;5.00;3.90;;;;;;;24.79;42.20;100364.41;107014;1283;75690;-81
2022/05/28 09:37:05;;;;;;;7.40;4.30;;;;;;;24.80;42.08;100366.55;106950;1283;61187;-84
2022/05/28 09:39:44;;;;;;;6.40;4.30;;;;;;;24.79;42.18;100365.66;107207;1283;61102;-82
2022/05/28 09:42:24;;;;;;;9.10;4.10;;;;;;;24.80;42.13;100364.73;106887;1283;72755;-88
2022/05/28 09:45:12;;;;;;;6.80;4.20;;;;;;;24.79;42.10;100362.29;106836;1284;75631;-83
2022/05/28 09:47:49;;;;;;;5.00;4.10;;;;;;;24.79;42.24;100361.55;107025;1283;61568;-84
2022/05/28 09:50:24;;;;;;;6.70;4.20;;;;;;;24.79;42.12;100361.17;106977;1283;61130;-83
2022/05/28 09:56:11;;;;;;;6.10;4.10;;;;;;;24.79;42.11;100359.05;106841;1284;75857;-82
2022/05/28 09:58:38;;;;;;;6.20;4.00;;;;;;;24.79;42.25;100359.71;106872;1283;61272;-82
2022/05/28 10:01:24;;;;;;;6.00;4.20;;;;;;;24.80;42.11;100357.47;106957;1283;61122;-82
2022/05/28 10:06:44;;;;;;;5.30;4.10;;;;;;;24.80;42.18;100356.40;106983;1283;75796;-81
2022/05/28 10:09:17;;;;;;;7.30;4.40;;;;;;;24.81;42.25;100351.80;106699;1283;61314;-81
2022/05/28 10:11:51;;;;;;;6.00;4.00;;;;;;;24.82;42.22;100350.69;106678;1283;61287;-81
2022/05/28 10:14:16;;;;;;;6.80;4.00;;;;;;;24.83;42.25;100348.78;106715;1283;74137;-82
2022/05/28 10:16:46;;;;;;;5.60;4.20;;;;;;;24.83;42.30;100347.49;106621;1283;61309;-82
2022/05/28 10:19:25;;;;;;;5.80;3.80;;;;;;;24.84;42.25;100351.70;106850;1283;61248;-85
2022/05/28 10:21:52;;;;;;;5.70;4.00;;;;;;;24.85;42.29;100345.17;106570;1286;61063;-83
2022/05/28 10:24:19;;;;;;;5.20;3.70;;;;;;;24.85;42.23;100340.47;107076;1283;72757;-81
2022/05/28 10:26:55;;;;;;;7.50;3.80;;;;;;;24.85;42.32;100341.50;106800;1283;74528;-82
2022/05/28 10:29:29;;;;;;;7.30;4.40;;;;;;;24.86;42.18;100336.23;106930;1283;61383;-81
2022/05/28 10:31:57;;;;;;;5.70;4.40;;;;;;;24.85;42.30;100332.86;106712;1286;61433;-81
2022/05/28 10:34:30;;;;;;;7.90;4.20;;;;;;;24.86;42.23;100330.97;106789;1283;72550;-81
2022/05/28 10:37:15;;;;;;;5.40;4.10;;;;;;;24.86;42.23;100323.42;106888;1283;73484;-85
2022/05/28 10:39:41;;;;;;;7.30;4.30;;;;;;;24.86;42.25;100320.72;106947;1283;61126;-83
2022/05/28 10:42:09;;;;;;;6.50;4.00;;;;;;;24.86;42.16;100319.13;106774;1283;61185;-82
2022/05/28 10:44:35;;;;;;;4.70;3.80;;;;;;;24.86;42.34;100319.83;106573;1283;72638;-81
2022/05/28 10:47:22;;;;;;;5.60;4.00;;;;;;;24.85;42.41;100322.80;106403;1286;61266;-81
2022/05/28 10:50:16;;;;;;;7.50;4.10;;;;;;;24.86;42.12;100315.21;106711;1283;61216;-80
2022/05/28 10:53:00;;;;;;;6.20;3.90;;;;;;;24.86;42.31;100307.63;107135;1283;61170;-80
2022/05/28 10:55:43;;;;;;;5.70;3.70;;;;;;;24.86;42.31;100300.98;106849;1283;72789;-82
2022/05/28 10:58:25;;;;;;;7.10;4.10;;;;;;;24.86;42.26;100297.39;106950;1283;74546;-82
2022/05/28 11:01:18;;;;;;;5.40;3.90;;;;;;;24.86;42.29;100295.95;106869;1283;61141;-82
2022/05/28 11:03:58;;;;;;;6.40;4.20;;;;;;;24.85;42.24;100295.09;106946;1284;61208;-84
2022/05/28 11:07:01;;;;;;;6.50;4.40;;;;;;;24.85;42.27;100290.05;106974;1283;72645;-83
2022/05/28 11:10:02;;;;;;;5.90;3.80;;;;;;;24.85;42.31;100290.45;107150;1283;75700;-82
2022/05/28 11:12:50;;;;;;;5.70;3.90;;;;;;;24.84;42.27;100282.90;107200;1283;61577;-85
2022/05/28 11:15:23;;;;;;;5.80;4.00;;;;;;;24.85;42.16;100279.48;106856;1283;61509;-80
2022/05/28 11:18:17;;;;;;;6.30;3.80;;;;;;;24.84;42.27;100274.66;107694;1283;72590;-80
2022/05/28 11:21:14;;;;;;;5.40;3.60;;;;;;;24.86;42.22;100275.26;107209;1283;75707;-81
2022/05/28 11:24:22;;;;;;;7.50;4.10;;;;;;;24.87;42.31;100272.60;106759;1283;61209;-82
2022/05/28 11:27:25;;;;;;;5.10;3.70;;;;;;;24.87;42.22;100267.38;106665;1283;61500;-81
2022/05/28 11:30:12;;;;;;;5.40;3.50;;;;;;;24.87;42.35;100262.14;106899;1283;71817;-81
2022/05/28 11:32:50;;;;;;;5.60;3.50;;;;;;;24.87;42.24;100255.63;106731;1283;75679;-80
2022/05/28 11:35:21;;;;;;;5.80;3.60;;;;;;;24.88;42.25;100258.42;106501;1284;61160;-82
2022/05/28 11:37:59;;;;;;;6.40;4.00;;;;;;;24.89;42.08;100258.36;107136;1283;61120;-82
2022/05/28 11:40:29;;;;;;;5.30;3.90;;;;;;;24.89;42.20;100253.50;107121;1283;72785;-82